Terminal Aerodrome Forecast
Issued by NWS New Orleans/Baton Rouge, LA

Home | Current Version | Previous Version | Text Only | Print | Product List | Glossary On
Versions: 1 2 3 4 5 6 7 8 9 10 11 12
012
FTUS44 KLIX 161758
TAFBTR
TAF
KBTR 161758Z 1618/1718 35007KT P6SM -SNPL OVC017
     FM170000 36011KT P6SM BKN015
     FM170700 36010KT P6SM SCT200
     FM171500 01010KT P6SM SKC=

USA.gov is the U.S. government's official web portal to all federal, state and local government web resources and services.